Suzdal', Russia
Current Conditions -  °F | °C
As of 9:30 PM on Monday 24 Nov 2014 (Local Time) from UUDL Reporting Station
Overcast Overcast  
Wind Chill: 17°   Ceiling: 1400
Heat Index: 25°   Visibility: 6mi
Dew Point: 19°   Wind: 7mph
Humidity: 80%   Direction: 220°SW
Pressure: 30.65"   Gusts: NA
Location:  56.43°N, 40.44°E
Report Text: UUDL 241830Z 22003MPS 9999 OVC014 M04/M07 Q1038 NOSIG RMKQFE770 23000060
Loading
Personal Weather Stations






























Interactive Weather Map New forecast layout! Learn more

10-Day Weather Forecast

Advertisements
Track Severe Weather on mobile